ADDS METAR Data INFO
IDs: Format: Raw Decoded Include TAF

Data at: 0336 UTC 19 Jul 2018

KBIL 190253Z 25009KT 10SM FEW090 FEW120 26/09 A2995 RMK AO2 SLP108 CB DSNT N SE SW T02560089 57003 $
KBIL 190153Z 24011KT 10SM FEW075 SCT110 28/07 A2995 RMK AO2 SLP108 CB DSNT SE SW NW T02780067 $
KBIL 190053Z 28008KT 10SM FEW090 BKN120 27/08 A2997 RMK AO2 LTG DSNT SE SLP116 CB DSNT NE SE-S SHRA DSNT NE SE-W T02720078 $
KBIL 182353Z 32011G19KT 10SM FEW021CB SCT090 SCT110 27/10 A2996 RMK AO2 PK WND 32041/2326 LTG DSNT E RAB12E47 SLP115 CB NE-E MOV E CB DSNT N SW SHRA DSNT S-N FROPA P0001 60001 T02720100 10350 20250 55003 $
KBIL 182316Z 33012G41KT 10SM -RA SQ SCT110CB BKN140 31/01 A2996 RMK AO2 PK WND 31041/2309 RAB12 CB W-N MOV E CB DSNT N NW P0000 T03110011 $
KBIL 182253Z 33013KT 10SM FEW075 SCT110 BKN200 32/04 A2994 RMK AO2 PK WND 35026/2210 LTG DSNT W AND NW SLP102 CB SHRA DSNT W-NW T03220039 $
KBIL 182153Z 33017G28KT 10SM FEW075 SCT100 34/02 A2996 RMK AO2 PK WND 33031/2101 SLP105 CB DSNT N W T03440022 $
KBIL 182053Z 32021G28KT 10SM FEW065 FEW100 34/03 A2998 RMK AO2 PK WND 34028/2049 SLP110 T03440028 56013
KBIL 181953Z 31017G27KT 10SM FEW065 33/01 A2999 RMK AO2 PK WND 31027/1950 SLP116 T03330011
KBIL 181853Z 32019G24KT 10SM FEW065 33/02 A3000 RMK AO2 SLP120 T03280017
KBIL 181753Z VRB05G16KT 10SM FEW065 31/12 A3002 RMK AO2 SLP127 TCU DSNT N T03060117 10306 20161 58009
KBIL 181653Z 22011KT 10SM CLR 26/13 A3003 RMK AO2 SLP136 T02560133
KBIL 181553Z 23010KT 10SM FEW110 23/12 A3004 RMK AO2 SLP139 T02280117
KBIL 181453Z 23014KT 10SM FEW085 21/13 A3004 RMK AO2 SLP143 T02060128 50002
KBIL 181353Z 22011KT 10SM FEW085 18/13 A3005 RMK AO2 SLP146 T01780133
KBIL 181253Z 24011KT 10SM FEW085 16/13 A3004 RMK AO2 SLP146 T01610133
KBIL 181153Z 23009KT 10SM BKN120 16/14 A3004 RMK AO2 SLP146 60000 70012 T01610139 10183 20150 50001
KBIL 181053Z 35003KT 10SM FEW120 16/14 A3005 RMK AO2 SLP151 T01610144
KBIL 180953Z 22010KT 10SM FEW120 17/15 A3003 RMK AO2 SLP136 T01670150
KBIL 180853Z 22008KT 10SM BKN130 17/16 A3003 RMK AO2 SLP134 60000 T01720156 56015
KBIL 180753Z 23010KT 10SM BKN085 18/16 A3004 RMK AO2 RAE24 SLP138 P0000 T01780156
KBIL 180653Z 31008KT 10SM -RA FEW070 BKN110 17/16 A3007 RMK AO2 RAB25 SLP152 P0000 T01720161 403280156
KBIL 180553Z 00000KT 10SM FEW095 BKN130 18/16 A3008 RMK AO2 LTG DSNT NW RAE03 TSE16 SLP153 OCNL LTG CB DSNT NW-N P0000 60012 T01830161 10256 20183 50007
KBIL 180517Z 09005KT 10SM FEW025 SCT070 SCT120 19/16 A3009 RMK AO2 LTG DSNT SE AND W AND NW RAE03 TSE16 OCNL LTG CB DSNT SE-S W-NW P0000 T01890161
KBIL 180453Z 05005KT 10SM -TSRA FEW030 SCT070CB BKN130 18/16 A3010 RMK AO2 SLP161 RAB23 TSB48 OCNL LTGICCG VC S-W-N TS S-W-N MOV E P0012 T01830156
KBIL 180449Z 02007KT 4SM -TSRA FEW029 BKN070 OVC100 18/16 A3010 RMK AO2 RAB23 P0012
KBIL 180353Z 07010KT 10SM BKN120 22/14 A3009 RMK AO2 SLP159 OCNL LTG DSNT N NE CB DSNT N-NE T02170144
KBIL 180253Z 20008KT 10SM FEW110 SCT190 23/13 A3006 RMK AO2 SLP146 CB SHRA DSNT NE-E NW T02280133 55001
KBIL 180153Z 21004KT 10SM FEW110 SCT180 24/12 A3003 RMK AO2 SLP140 CB SHRA DSNT NE-E NW T02440122
KBIL 180053Z 35003KT 10SM FEW075 SCT095 BKN130 24/13 A3007 RMK AO2 TSB35E53 SLP153 OCNL LTG DSNT NE-E CB SHRA DSNT N-SE T02440128
KBIL 180041Z 33005KT 10SM TS SCT075CB BKN100 BKN120 24/14 A3009 RMK AO2 TSB35 OCNL LTGIC VC N TS N MOV E T02390139
KBIL 172353Z 23010KT 10SM BKN100CB BKN140 22/14 A3006 RMK AO2 WSHFT 2246 LTG DSNT N-SE RAE35 TSE52 SLP156 CBMAM OHD MOV E CB SHRA DSNT N-SE P0000 60000 T02220139 10328 20206 53009
KBIL 172306Z 22018G25KT 10SM -TSRA FEW070 BKN100CB OVC120 22/14 A3006 RMK AO2 WSHFT 2246 LTG DSNT ALQDS OCNL LTGICCG VC N SE-SW TS N SE-SW MOV E P0000 T02170144
KBIL 172253Z 24015G30KT 10SM -TSRA FEW070 BKN095CB BKN120 23/14 A3005 RMK AO2 PK WND 28035/2239 LTG DSNT ALQDS RAB41 TSB15 PRESRR SLP149 OCNL LTGICCG VC SE-SW NW TS SE-SW NW MOV E FROPA P0000 T02330144
KBIL 172221Z 25016G22KT 10SM TS SCT075 BKN090CB BKN140 28/11 A3002 RMK AO2 LTG DSNT ALQDS TSB15 OCNL LTGICCG VC SW-NW TS SW-NW MOV NE-E T02830106
KBIL 172153Z 20005KT 10SM FEW090 BKN110CB BKN140 31/08 A3002 RMK AO2 LTG DSNT ALQDS SLP130 CBMAM OHD MOV NE CB SHRA DSNT N E S-W T03060083
KBIL 172053Z 19004KT 10SM FEW060 SCT090 SCT180 31/10 A3004 RMK AO2 SLP131 CB DSNT SE S-NW TCU DSNT E T03110100 56016
KBIL 171953Z VRB04KT 10SM FEW060 FEW090 BKN220 30/11 A3005 RMK AO2 SLP136 CB DSNT SE-NW TCU DSNT E S T03000111
KBIL 171853Z 21005KT 10SM FEW060 FEW090 BKN220 28/13 A3007 RMK AO2 SLP148 CB DSNT SE-SW NW ACC S-W T02830128
KBIL 171753Z 19005KT 10SM FEW060 FEW085 SCT250 28/12 A3009 RMK AO2 SLP150 VIRGA S CB DSNT SE-S NW-N ACC SW-W T02830117 10283 20156 58010
KBIL 171653Z 22007KT 10SM FEW060 FEW085 SCT250 26/13 A3010 RMK AO2 SLP156 CB DSNT SE S-SW ACC SW-NE T02560133
KBIL 171553Z VRB04KT 10SM FEW090 FEW250 24/13 A3011 RMK AO2 SLP161 ACC NE W-NW T02390128